Time;durP1;ratioP1;P1;durP2;ratioP2;P2;SDS_P1;SDS_P2;PMS_P1;PMS_P2;Temp;Humidity;BMP_temperature;BMP_pressure;BME280_temperature;BME280_humidity;BME280_pressure;Samples;Min_cycle;Max_cycle;Signal;HPM_P1;HPM_P2
2023/02/21 02:14:52;;;;;;;;;;;;;;;6.76;68.89;100344.38;1088104;54;19942;-81
2023/02/21 02:15:57;;;;;;;;;;;;;;;6.65;69.05;100345.16;1088201;54;19950;-80
2023/02/21 02:17:07;;;;;;;;;;;;;;;6.59;69.12;100342.97;1087917;54;19942;-79
2023/02/21 02:18:17;;;;;;;;;;;;;;;6.55;69.51;100341.47;1088248;54;19951;-80
2023/02/21 02:19:38;;;;;;;;;;;;;;;6.50;69.78;100335.66;1088176;54;19994;-81
2023/02/21 02:21:09;;;;;;;;;;;;;;;6.46;69.72;100342.13;1088126;54;19934;-79
2023/02/21 02:22:22;;;;;;;;;;;;;;;6.36;70.26;100341.97;1088157;54;19967;-82
2023/02/21 02:23:40;;;;;;;;;;;;;;;6.43;69.84;100335.25;1088143;54;19945;-79
2023/02/21 02:24:58;;;;;;;;;;;;;;;6.58;69.41;100337.75;1088099;54;20011;-79
2023/02/21 02:26:11;;;;;;;;;;;;;;;6.50;69.33;100335.66;1088613;46;19942;-79
2023/02/21 02:27:39;;;;;;;;;;;;;;;6.32;69.74;100336.03;1088119;54;19942;-80
2023/02/21 02:28:58;;;;;;;;;;;;;;;6.37;69.48;100333.88;1088058;54;19935;-79
2023/02/21 02:30:15;;;;;;;;;;;;;;;6.32;69.32;100330.72;1088097;54;19967;-80
2023/02/21 02:31:34;;;;;;;;;;;;;;;6.36;69.62;100334.84;1088045;54;19959;-82
2023/02/21 02:32:46;;;;;;;;;;;;;;;6.48;68.98;100329.59;1089805;46;19947;-81
2023/02/21 02:34:07;;;;;;;;;;;;;;;6.37;69.14;100330.41;1088084;54;19942;-80
2023/02/21 02:35:12;;;;;;;;;;;;;;;6.34;69.50;100334.09;1088046;54;19942;-81
2023/02/21 02:36:18;;;;;;;;;;;;;;;6.42;69.04;100341.53;1088012;54;19942;-81
2023/02/21 02:37:22;;;;;;;;;;;;;;;6.35;69.13;100335.78;1088035;54;19950;-82
2023/02/21 02:38:28;;;;;;;;;;;;;;;6.35;69.05;100330.47;1087981;54;19958;-78
2023/02/21 02:39:36;;;;;;;;;;;;;;;6.31;68.94;100339.66;1088059;54;20253;-79
2023/02/21 02:40:47;;;;;;;;;;;;;;;6.36;69.12;100332.19;1088112;54;19942;-80
2023/02/21 02:41:52;;;;;;;;;;;;;;;6.47;68.78;100335.88;1088106;54;19943;-82
2023/02/21 02:43:03;;;;;;;;;;;;;;;6.50;68.51;100338.31;1087978;54;19942;-82
2023/02/21 02:44:13;;;;;;;;;;;;;;;6.56;68.42;100348.50;1097322;39;20733;-80
2023/02/21 02:45:20;;;;;;;;;;;;;;;6.61;68.05;100334.88;1088067;54;19942;-81
2023/02/21 02:46:23;;;;;;;;;;;;;;;6.65;67.88;100331.03;1088018;54;19934;-82
2023/02/21 02:47:30;;;;;;;;;;;;;;;6.44;68.54;100336.09;1087991;54;19960;-80
2023/02/21 02:48:34;;;;;;;;;;;;;;;6.49;68.24;100331.31;1088026;54;19959;-82
2023/02/21 02:49:40;;;;;;;;;;;;;;;6.56;68.06;100337.88;1088070;54;19968;-80
2023/02/21 02:50:44;;;;;;;;;;;;;;;6.63;67.80;100338.28;1088291;46;19923;-81
2023/02/21 02:51:48;;;;;;;;;;;;;;;6.67;67.79;100343.25;1088060;54;19943;-79
2023/02/21 02:52:51;;;;;;;;;;;;;;;6.58;68.19;100340.41;1088004;54;19942;-80
2023/02/21 02:53:55;;;;;;;;;;;;;;;6.64;67.73;100340.81;1088208;46;20018;-82
2023/02/21 02:54:57;;;;;;;;;;;;;;;6.64;67.96;100346.13;1088161;54;19959;-82
2023/02/21 02:56:01;;;;;;;;;;;;;;;6.68;67.54;100331.66;1088108;54;19943;-82
2023/02/21 02:57:09;;;;;;;;;;;;;;;6.69;67.79;100336.00;1088199;54;19923;-83
2023/02/21 02:58:13;;;;;;;;;;;;;;;6.70;67.59;100339.50;1088392;54;19942;-82
2023/02/21 02:59:16;;;;;;;;;;;;;;;6.75;67.65;100341.81;1088311;54;19942;-81
2023/02/21 03:00:20;;;;;;;;;;;;;;;6.75;67.42;100337.38;1088260;54;19934;-81
2023/02/21 03:01:39;;;;;;;;;;;;;;;6.71;67.53;100336.72;1088328;54;19938;-81
2023/02/21 03:02:52;;;;;;;;;;;;;;;6.70;67.60;100345.69;1088220;54;19938;-80
2023/02/21 03:04:01;;;;;;;;;;;;;;;6.68;67.62;100342.28;1088300;54;19949;-81
2023/02/21 03:05:11;;;;;;;;;;;;;;;6.68;67.77;100342.28;1095461;39;20562;-80
2023/02/21 03:06:22;;;;;;;;;;;;;;;6.62;68.00;100342.72;1088213;54;19950;-78
2023/02/21 03:07:30;;;;;;;;;;;;;;;6.64;67.87;100342.63;1088381;46;19949;-81
2023/02/21 03:08:39;;;;;;;;;;;;;;;6.64;67.79;100339.97;1088231;54;19934;-80
2023/02/21 03:09:48;;;;;;;;;;;;;;;6.64;67.76;100339.97;1088258;54;19942;-80
2023/02/21 03:10:53;;;;;;;;;;;;;;;6.59;67.82;100342.97;1088466;54;19967;-82
2023/02/21 03:12:01;;;;;;;;;;;;;;;6.53;68.33;100338.06;1089463;39;20102;-81
2023/02/21 03:13:04;;;;;;;;;;;;;;;6.53;67.97;100343.38;1088386;54;19934;-82
2023/02/21 03:14:10;;;;;;;;;;;;;;;6.55;68.30;100337.03;1090126;46;19934;-83
2023/02/21 03:15:16;;;;;;;;;;;;;;;6.46;68.33;100342.13;1088348;54;19926;-82
2023/02/21 03:16:22;;;;;;;;;;;;;;;6.40;68.52;100346.09;1091009;46;19990;-82
2023/02/21 03:17:25;;;;;;;;;;;;;;;6.39;68.46;100337.28;1088311;54;19974;-82
2023/02/21 03:18:32;;;;;;;;;;;;;;;6.29;69.09;100341.56;1088574;39;20559;-82
2023/02/21 03:19:34;;;;;;;;;;;;;;;6.18;69.45;100342.34;1088321;54;19950;-80
2023/02/21 03:20:39;;;;;;;;;;;;;;;6.13;69.88;100340.97;1088310;54;19943;-81
2023/02/21 03:21:45;;;;;;;;;;;;;;;5.97;70.52;100342.00;1088295;54;19994;-82
2023/02/21 03:22:51;;;;;;;;;;;;;;;6.08;70.21;100339.47;1088352;54;19949;-83
2023/02/21 03:23:54;;;;;;;;;;;;;;;6.04;70.23;100335.34;1088280;54;19947;-79
2023/02/21 03:25:00;;;;;;;;;;;;;;;5.84;71.01;100335.88;1088204;54;19942;-80
2023/02/21 03:26:03;;;;;;;;;;;;;;;5.92;70.86;100338.81;1090710;46;19945;-83
2023/02/21 03:27:08;;;;;;;;;;;;;;;5.99;70.48;100340.13;1087850;54;21450;-80
2023/02/21 03:28:10;;;;;;;;;;;;;;;6.10;70.03;100339.34;1088031;54;19950;-81
2023/02/21 03:29:14;;;;;;;;;;;;;;;6.05;69.82;100342.34;1088194;54;19931;-81
2023/02/21 03:30:16;;;;;;;;;;;;;;;6.09;69.98;100341.16;1088321;54;19943;-81
2023/02/21 03:31:23;;;;;;;;;;;;;;;6.17;69.59;100339.78;1088239;54;19955;-81
2023/02/21 03:33:30;;;;;;;;;;;;;;;5.89;70.52;100344.34;1088431;54;19949;-81
2023/02/21 03:34:31;;;;;;;;;;;;;;;5.83;70.48;100344.78;1098395;39;20748;-82
2023/02/21 03:35:41;;;;;;;;;;;;;;;5.76;70.68;100345.19;1088415;54;19926;-82
2023/02/21 03:36:45;;;;;;;;;;;;;;;5.76;70.79;100341.69;1088536;54;19943;-82
2023/02/21 03:37:52;;;;;;;;;;;;;;;5.85;70.65;100343.72;1088515;54;19939;-82
2023/02/21 03:39:58;;;;;;;;;;;;;;;5.67;70.93;100345.81;1087721;54;19946;-81
2023/02/21 03:41:04;;;;;;;;;;;;;;;5.64;70.75;100351.34;1088409;54;20017;-81
2023/02/21 03:42:08;;;;;;;;;;;;;;;5.58;71.04;100346.44;1088358;54;19933;-80
2023/02/21 03:43:18;;;;;;;;;;;;;;;5.57;71.07;100350.09;1088410;54;19942;-79
2023/02/21 03:44:19;;;;;;;;;;;;;;;5.49;71.17;100347.09;1089280;39;20534;-80
2023/02/21 03:45:23;;;;;;;;;;;;;;;5.46;71.33;100349.00;1088297;54;19943;-82
2023/02/21 03:46:24;;;;;;;;;;;;;;;5.36;71.68;100342.63;1088217;54;19950;-82
2023/02/21 03:47:28;;;;;;;;;;;;;;;5.36;71.70;100352.38;1088870;46;20003;-81
2023/02/21 03:48:29;;;;;;;;;;;;;;;5.28;71.93;100350.25;1089827;46;19950;-81
2023/02/21 03:49:33;;;;;;;;;;;;;;;5.23;71.88;100347.06;1088062;54;19947;-80
2023/02/21 03:50:34;;;;;;;;;;;;;;;5.18;72.27;100349.19;1088140;54;19966;-81
2023/02/21 03:51:37;;;;;;;;;;;;;;;5.10;72.66;100353.16;1088025;54;19935;-81
2023/02/21 03:52:41;;;;;;;;;;;;;;;5.07;72.78;100348.09;1088356;54;19943;-80
2023/02/21 03:53:47;;;;;;;;;;;;;;;5.08;72.53;100344.50;1088301;54;19931;-80
2023/02/21 03:54:48;;;;;;;;;;;;;;;5.06;72.69;100348.16;1088391;54;19950;-80
2023/02/21 03:55:52;;;;;;;;;;;;;;;4.99;73.17;100350.41;1088323;54;19927;-81
2023/02/21 03:56:53;;;;;;;;;;;;;;;4.95;73.26;100354.19;1088365;54;19923;-81
2023/02/21 03:57:58;;;;;;;;;;;;;;;4.93;72.98;100345.50;1088328;54;19982;-78
2023/02/21 03:58:59;;;;;;;;;;;;;;;4.95;73.34;100348.88;1088313;54;19949;-80
2023/02/21 04:00:08;;;;;;;;;;;;;;;4.91;73.29;100334.16;1088434;54;19955;-79
2023/02/21 04:01:09;;;;;;;;;;;;;;;4.86;73.54;100337.13;1089173;46;19943;-81
2023/02/21 04:02:13;;;;;;;;;;;;;;;4.89;73.62;100336.06;1091259;46;19954;-82
2023/02/21 04:03:14;;;;;;;;;;;;;;;4.90;73.47;100338.59;1088381;54;19943;-81
2023/02/21 04:04:19;;;;;;;;;;;;;;;4.91;73.45;100332.34;1088283;54;19974;-80
2023/02/21 04:05:20;;;;;;;;;;;;;;;4.93;73.63;100332.25;1092715;46;19942;-82
2023/02/21 04:06:29;;;;;;;;;;;;;;;5.01;73.37;100335.22;1088350;54;19943;-79
2023/02/21 04:07:30;;;;;;;;;;;;;;;5.08;72.65;100333.88;1088289;54;19942;-81
2023/02/21 04:08:38;;;;;;;;;;;;;;;5.03;73.11;100330.69;1088385;54;19922;-80
2023/02/21 04:09:39;;;;;;;;;;;;;;;5.07;72.90;100336.63;1088354;54;19957;-80
2023/02/21 04:10:44;;;;;;;;;;;;;;;5.05;73.01;100335.91;1088309;54;19930;-80
2023/02/21 04:11:45;;;;;;;;;;;;;;;5.04;73.13;100326.25;1088376;54;19943;-80
2023/02/21 04:12:49;;;;;;;;;;;;;;;5.06;73.09;100333.13;1088363;54;19961;-82
2023/02/21 04:13:50;;;;;;;;;;;;;;;5.11;72.87;100319.56;1088333;54;19934;-79
2023/02/21 04:14:57;;;;;;;;;;;;;;;5.12;72.73;100330.06;1088360;54;19927;-78
2023/02/21 04:15:58;;;;;;;;;;;;;;;5.08;72.68;100331.25;1088244;54;19923;-80
2023/02/21 04:17:02;;;;;;;;;;;;;;;5.03;72.81;100337.78;1088320;54;20637;-81
2023/02/21 04:18:03;;;;;;;;;;;;;;;5.05;72.77;100335.91;1088297;54;19942;-80
2023/02/21 04:19:09;;;;;;;;;;;;;;;4.98;73.08;100341.59;1088298;54;19966;-79
2023/02/21 04:20:10;;;;;;;;;;;;;;;4.84;72.99;100339.84;1088328;54;19949;-80
2023/02/21 04:21:17;;;;;;;;;;;;;;;4.78;73.24;100337.59;1088241;54;19983;-79
2023/02/21 04:22:18;;;;;;;;;;;;;;;4.80;72.99;100338.38;1088287;54;19961;-79
2023/02/21 04:23:24;;;;;;;;;;;;;;;4.71;73.23;100332.81;1088357;54;19950;-82
2023/02/21 04:24:28;;;;;;;;;;;;;;;4.66;73.58;100336.63;1088336;54;19935;-80
2023/02/21 04:25:32;;;;;;;;;;;;;;;4.73;73.46;100334.41;1088292;54;19943;-79
2023/02/21 04:26:34;;;;;;;;;;;;;;;4.73;73.43;100337.03;1088271;54;19973;-81
2023/02/21 04:27:39;;;;;;;;;;;;;;;4.84;73.11;100339.84;1088299;54;19942;-81
2023/02/21 04:28:40;;;;;;;;;;;;;;;4.94;72.70;100336.59;1089007;39;20514;-81
2023/02/21 04:29:45;;;;;;;;;;;;;;;5.01;72.25;100337.88;1088325;54;19943;-81
2023/02/21 04:30:47;;;;;;;;;;;;;;;4.99;72.25;100334.50;1088297;54;19990;-81
2023/02/21 04:31:50;;;;;;;;;;;;;;;4.93;72.23;100337.53;1088351;54;19943;-81
2023/02/21 04:32:51;;;;;;;;;;;;;;;5.01;72.47;100329.94;1088273;54;19967;-80
2023/02/21 04:33:57;;;;;;;;;;;;;;;5.11;71.90;100333.66;1090389;47;19927;-80
2023/02/21 04:34:58;;;;;;;;;;;;;;;5.08;71.71;100336.53;1088298;54;19935;-81
2023/02/21 04:36:03;;;;;;;;;;;;;;;5.06;72.25;100334.91;1088321;54;19943;-81
2023/02/21 04:37:06;;;;;;;;;;;;;;;5.06;72.25;100340.22;1088306;54;19942;-80
2023/02/21 04:38:10;;;;;;;;;;;;;;;5.02;72.17;100339.56;1088253;54;19927;-80
2023/02/21 04:39:14;;;;;;;;;;;;;;;5.01;72.07;100332.56;1088282;54;19927;-80
2023/02/21 04:40:18;;;;;;;;;;;;;;;4.89;72.60;100339.53;1088336;54;19957;-80
2023/02/21 04:41:23;;;;;;;;;;;;;;;4.87;72.93;100341.44;1088629;54;19947;-81
2023/02/21 04:42:24;;;;;;;;;;;;;;;4.83;73.14;100335.50;1088615;54;19942;-81
2023/02/21 04:43:29;;;;;;;;;;;;;;;4.84;73.24;100339.00;1088738;54;19942;-82
2023/02/21 04:44:30;;;;;;;;;;;;;;;4.84;73.07;100342.50;1088646;54;19927;-80
2023/02/21 04:45:34;;;;;;;;;;;;;;;4.81;72.88;100340.06;1088645;54;20593;-80
2023/02/21 04:46:35;;;;;;;;;;;;;;;4.77;73.02;100345.66;1088705;54;19943;-81
2023/02/21 04:47:40;;;;;;;;;;;;;;;4.76;72.97;100342.16;1088616;54;19999;-80
2023/02/21 04:48:41;;;;;;;;;;;;;;;4.73;73.30;100342.34;1088618;54;19950;-80
2023/02/21 04:49:50;;;;;;;;;;;;;;;4.74;73.04;100335.25;1088697;54;19954;-80
2023/02/21 04:50:54;;;;;;;;;;;;;;;4.65;73.02;100332.25;1088617;54;19963;-79
2023/02/21 04:51:55;;;;;;;;;;;;;;;4.60;73.29;100334.34;1090606;39;20578;-80
2023/02/21 04:52:59;;;;;;;;;;;;;;;4.59;73.41;100331.81;1088638;54;19942;-81
2023/02/21 04:54:01;;;;;;;;;;;;;;;4.56;73.38;100329.34;1088626;54;19949;-79
2023/02/21 04:55:04;;;;;;;;;;;;;;;4.61;73.25;100335.22;1088641;54;19943;-78
2023/02/21 04:56:09;;;;;;;;;;;;;;;4.55;73.40;100331.16;1088496;54;20709;-79
2023/02/21 04:57:13;;;;;;;;;;;;;;;4.47;73.62;100336.09;1088545;54;19965;-81
2023/02/21 04:58:16;;;;;;;;;;;;;;;4.48;73.50;100330.69;1088611;54;19942;-81
2023/02/21 04:59:20;;;;;;;;;;;;;;;4.52;73.28;100331.34;1088628;54;19927;-80
2023/02/21 05:00:21;;;;;;;;;;;;;;;4.56;73.49;100334.63;1088654;54;19927;-84
2023/02/21 05:01:25;;;;;;;;;;;;;;;4.54;73.10;100334.75;1096357;39;20557;-81
2023/02/21 05:02:26;;;;;;;;;;;;;;;4.46;73.57;100337.06;1088598;54;19943;-82
2023/02/21 05:03:33;;;;;;;;;;;;;;;4.34;73.83;100328.09;1088739;54;19934;-81
2023/02/21 05:04:34;;;;;;;;;;;;;;;4.27;74.24;100324.13;1088671;54;19966;-81
2023/02/21 05:05:38;;;;;;;;;;;;;;;4.22;74.26;100327.06;1088541;54;19950;-80
2023/02/21 05:06:41;;;;;;;;;;;;;;;4.26;74.42;100325.06;1088662;54;19949;-78
2023/02/21 05:07:45;;;;;;;;;;;;;;;4.35;74.18;100332.41;1088639;54;19935;-80
2023/02/21 05:08:46;;;;;;;;;;;;;;;4.44;73.92;100339.78;1088617;54;19930;-80
2023/02/21 05:09:50;;;;;;;;;;;;;;;4.53;73.30;100338.34;1088575;54;19943;-78
2023/02/21 05:10:53;;;;;;;;;;;;;;;4.64;73.20;100335.00;1088619;54;19927;-80
2023/02/21 05:12:10;;;;;;;;;;;;;;;4.72;72.47;100332.72;1088649;54;19942;-79
2023/02/21 05:13:11;;;;;;;;;;;;;;;4.80;72.38;100335.72;1088577;54;19967;-80
2023/02/21 05:14:16;;;;;;;;;;;;;;;4.84;72.19;100326.59;1090341;39;20511;-80
2023/02/21 05:16:22;;;;;;;;;;;;;;;4.61;72.82;100329.91;1087499;54;19950;-78
2023/02/21 05:17:24;;;;;;;;;;;;;;;4.52;73.20;100326.06;1087744;54;20451;-79
2023/02/21 05:18:28;;;;;;;;;;;;;;;4.51;73.33;100327.88;1087747;54;19939;-78
2023/02/21 05:19:29;;;;;;;;;;;;;;;4.58;72.95;100335.41;1087656;54;19950;-78
2023/02/21 05:20:32;;;;;;;;;;;;;;;4.64;72.85;100335.00;1088053;39;20305;-79
2023/02/21 05:21:34;;;;;;;;;;;;;;;4.67;72.64;100335.66;1087642;54;19946;-80
2023/02/21 05:22:38;;;;;;;;;;;;;;;4.75;72.45;100335.16;1087650;54;19948;-79
2023/02/21 05:23:41;;;;;;;;;;;;;;;4.80;72.04;100333.06;1090779;39;20439;-78
2023/02/21 05:24:46;;;;;;;;;;;;;;;4.81;72.26;100331.25;1087762;54;20488;-80
2023/02/21 05:25:47;;;;;;;;;;;;;;;4.80;72.09;100341.00;1087767;54;19950;-79
2023/02/21 05:26:51;;;;;;;;;;;;;;;4.83;72.10;100346.09;1087767;54;19978;-79
2023/02/21 05:27:54;;;;;;;;;;;;;;;4.86;71.71;100344.19;1087589;54;19938;-79
2023/02/21 05:28:58;;;;;;;;;;;;;;;4.88;71.74;100337.84;1087708;54;19946;-79
2023/02/21 05:29:59;;;;;;;;;;;;;;;4.93;71.71;100334.88;1087864;54;19954;-80
2023/02/21 05:31:03;;;;;;;;;;;;;;;4.98;71.38;100343.41;1087647;54;19951;-78
2023/02/21 05:32:07;;;;;;;;;;;;;;;4.97;71.10;100339.88;1089413;39;20416;-79
2023/02/21 05:33:08;;;;;;;;;;;;;;;4.97;71.29;100345.19;1087515;54;19946;-79
2023/02/21 05:34:12;;;;;;;;;;;;;;;4.97;71.45;100336.41;1087567;54;20445;-79
2023/02/21 05:35:13;;;;;;;;;;;;;;;4.97;71.25;100347.00;1087574;54;20453;-78
2023/02/21 05:36:17;;;;;;;;;;;;;;;4.99;71.19;100345.94;1087802;54;19952;-79
2023/02/21 05:37:20;;;;;;;;;;;;;;;4.91;71.65;100344.75;1087447;54;19939;-78
2023/02/21 05:38:24;;;;;;;;;;;;;;;4.95;71.42;100343.59;1087665;54;19946;-79
2023/02/21 05:39:25;;;;;;;;;;;;;;;4.96;71.10;100345.28;1087596;54;19953;-79
2023/02/21 05:40:29;;;;;;;;;;;;;;;4.96;71.45;100343.47;1087602;54;19923;-78
2023/02/21 05:41:30;;;;;;;;;;;;;;;5.02;71.23;100350.19;1087715;54;19976;-79
2023/02/21 05:42:34;;;;;;;;;;;;;;;5.05;71.40;100349.97;1087718;54;19950;-81
2023/02/21 05:43:37;;;;;;;;;;;;;;;5.07;70.93;100340.13;1087861;54;19927;-79
2023/02/21 05:44:41;;;;;;;;;;;;;;;5.08;71.00;100343.63;1087604;54;19942;-79
2023/02/21 05:45:43;;;;;;;;;;;;;;;5.10;71.05;100347.03;1087603;54;19954;-79
2023/02/21 05:46:47;;;;;;;;;;;;;;;5.11;71.14;100352.22;1087625;54;19938;-80
2023/02/21 05:47:48;;;;;;;;;;;;;;;5.11;71.08;100348.72;1087756;54;19994;-79
2023/02/21 05:48:52;;;;;;;;;;;;;;;5.04;71.64;100345.63;1087917;54;19949;-79
2023/02/21 05:49:53;;;;;;;;;;;;;;;4.95;72.19;100349.75;1088055;54;19930;-79
2023/02/21 05:50:57;;;;;;;;;;;;;;;4.96;72.17;100348.78;1087830;54;19943;-79
2023/02/21 05:52:00;;;;;;;;;;;;;;;4.99;72.38;100355.69;1087675;54;19950;-79
2023/02/21 05:53:01;;;;;;;;;;;;;;;5.02;72.17;100349.34;1087942;54;20441;-78
2023/02/21 05:54:05;;;;;;;;;;;;;;;5.02;72.15;100350.19;1087758;54;19953;-78
2023/02/21 05:55:06;;;;;;;;;;;;;;;5.00;72.25;100344.16;1088024;54;19953;-78
2023/02/21 05:56:10;;;;;;;;;;;;;;;5.02;72.06;100355.47;1088074;47;19923;-79
2023/02/21 05:57:11;;;;;;;;;;;;;;;5.02;71.73;100344.88;1087959;54;19939;-79
2023/02/21 05:58:15;;;;;;;;;;;;;;;5.02;71.70;100347.53;1087751;54;19950;-79
2023/02/21 05:59:19;;;;;;;;;;;;;;;4.97;72.18;100344.34;1087828;54;19946;-78
2023/02/21 06:00:26;;;;;;;;;;;;;;;4.90;72.52;100349.19;1087719;54;19946;-79
2023/02/21 06:01:30;;;;;;;;;;;;;;;4.86;72.63;100349.50;1088824;39;20423;-79
2023/02/21 06:02:31;;;;;;;;;;;;;;;4.87;72.70;100343.25;1087725;54;19935;-78
2023/02/21 06:03:35;;;;;;;;;;;;;;;4.86;72.69;100346.84;1087556;54;19954;-79
2023/02/21 06:04:36;;;;;;;;;;;;;;;4.86;72.77;100346.84;1087931;54;19957;-78
2023/02/21 06:05:40;;;;;;;;;;;;;;;4.80;72.85;100353.41;1087666;54;19943;-78
2023/02/21 06:06:41;;;;;;;;;;;;;;;4.81;72.75;100345.38;1087807;54;19946;-79
2023/02/21 06:07:45;;;;;;;;;;;;;;;4.82;72.63;100338.25;1087695;54;19950;-79
2023/02/21 06:08:46;;;;;;;;;;;;;;;4.70;73.44;100347.84;1087622;54;19938;-78
2023/02/21 06:09:50;;;;;;;;;;;;;;;4.70;73.35;100339.91;1087667;54;20002;-78
2023/02/21 06:10:51;;;;;;;;;;;;;;;4.74;73.23;100338.75;1087753;54;19942;-80
2023/02/21 06:11:57;;;;;;;;;;;;;;;4.75;72.98;100343.09;1087858;54;19942;-80
2023/02/21 06:12:58;;;;;;;;;;;;;;;4.62;73.88;100352.81;1087784;54;19942;-79
2023/02/21 06:14:03;;;;;;;;;;;;;;;4.59;73.69;100345.03;1087714;54;20019;-78
2023/02/21 06:15:08;;;;;;;;;;;;;;;4.52;74.07;100342.81;1087475;54;19953;-79
2023/02/21 06:16:14;;;;;;;;;;;;;;;4.49;74.40;100343.00;1086809;54;20788;-78
2023/02/21 06:17:15;;;;;;;;;;;;;;;4.47;74.35;100338.75;1087752;54;19974;-79
2023/02/21 06:18:20;;;;;;;;;;;;;;;4.49;74.33;100342.13;1090929;39;20325;-78
2023/02/21 06:19:24;;;;;;;;;;;;;;;4.52;74.19;100340.16;1094836;39;20391;-79
2023/02/21 06:20:26;;;;;;;;;;;;;;;4.50;74.27;100343.81;1089290;46;19951;-78
2023/02/21 06:21:30;;;;;;;;;;;;;;;4.51;74.01;100345.53;1087640;54;19942;-78
2023/02/21 06:22:31;;;;;;;;;;;;;;;4.57;73.85;100350.44;1087770;54;19947;-78
2023/02/21 06:23:35;;;;;;;;;;;;;;;4.53;73.75;100347.13;1088753;46;19923;-80
2023/02/21 06:24:36;;;;;;;;;;;;;;;4.44;74.13;100345.06;1087888;54;19950;-79
2023/02/21 06:25:39;;;;;;;;;;;;;;;4.45;73.93;100346.78;1087655;54;19950;-80
2023/02/21 06:26:41;;;;;;;;;;;;;;;4.45;73.89;100349.41;1087558;54;19927;-79
2023/02/21 06:27:45;;;;;;;;;;;;;;;4.40;73.75;100346.22;1087600;54;19995;-80
2023/02/21 06:28:46;;;;;;;;;;;;;;;4.34;74.11;100349.28;1087549;54;19977;-79
2023/02/21 06:29:50;;;;;;;;;;;;;;;4.26;74.63;100356.81;1087700;54;19950;-80
2023/02/21 06:30:54;;;;;;;;;;;;;;;4.33;74.67;100348.41;1087761;54;19949;-79
2023/02/21 06:31:58;;;;;;;;;;;;;;;4.42;74.38;100347.00;1087682;54;19947;-78
2023/02/21 06:32:59;;;;;;;;;;;;;;;4.47;73.88;100347.53;1087508;54;19966;-81
2023/02/21 06:34:03;;;;;;;;;;;;;;;4.50;74.06;100352.63;1087682;54;19950;-82
2023/02/21 06:35:05;;;;;;;;;;;;;;;4.58;73.70;100343.34;1088107;39;20384;-78
2023/02/21 06:36:10;;;;;;;;;;;;;;;4.60;73.67;100350.22;1087548;54;19956;-80
2023/02/21 06:37:13;;;;;;;;;;;;;;;4.54;73.60;100355.94;1087786;54;19971;-78
2023/02/21 06:38:17;;;;;;;;;;;;;;;4.51;73.99;100354.34;1087875;54;19946;-79
2023/02/21 06:39:21;;;;;;;;;;;;;;;4.49;74.02;100352.72;1087686;54;19947;-80
2023/02/21 06:40:25;;;;;;;;;;;;;;;4.34;74.82;100352.75;1087599;54;19927;-81
2023/02/21 06:41:31;;;;;;;;;;;;;;;4.31;74.87;100352.09;1088501;46;19946;-79
2023/02/21 06:42:32;;;;;;;;;;;;;;;4.29;74.93;100354.00;1087669;54;19950;-79
2023/02/21 06:43:37;;;;;;;;;;;;;;;4.30;74.82;100347.75;1087583;54;20010;-79
2023/02/21 06:44:38;;;;;;;;;;;;;;;4.35;74.87;100345.66;1087503;54;20480;-79
2023/02/21 06:45:42;;;;;;;;;;;;;;;4.31;74.83;100346.81;1087836;54;20038;-79
2023/02/21 06:46:49;;;;;;;;;;;;;;;4.26;74.89;100344.47;1087684;54;19942;-79
2023/02/21 06:47:53;;;;;;;;;;;;;;;4.19;75.12;100357.22;1087583;54;19966;-79
2023/02/21 06:48:54;;;;;;;;;;;;;;;4.13;75.55;100349.69;1087782;54;19946;-81
2023/02/21 06:49:57;;;;;;;;;;;;;;;4.16;75.70;100354.75;1087742;54;19951;-80
2023/02/21 06:50:59;;;;;;;;;;;;;;;4.19;75.63;100346.63;1087477;54;19957;-79
2023/02/21 06:52:02;;;;;;;;;;;;;;;4.24;75.51;100358.75;1087510;54;19950;-80
2023/02/21 06:53:03;;;;;;;;;;;;;;;4.27;75.37;100353.22;1087807;54;19946;-80
2023/02/21 06:54:08;;;;;;;;;;;;;;;4.24;75.67;100353.44;1087267;54;20064;-79
2023/02/21 06:55:09;;;;;;;;;;;;;;;4.20;75.64;100358.09;1087272;54;19939;-78
2023/02/21 06:56:13;;;;;;;;;;;;;;;4.21;75.68;100355.34;1087903;54;19949;-79
2023/02/21 06:57:17;;;;;;;;;;;;;;;4.30;75.43;100358.34;1087813;54;19957;-79
2023/02/21 06:58:18;;;;;;;;;;;;;;;4.23;75.64;100355.22;1087914;54;19942;-77
2023/02/21 06:59:23;;;;;;;;;;;;;;;4.21;75.73;100355.34;1087832;54;19951;-79
2023/02/21 07:00:25;;;;;;;;;;;;;;;4.17;75.86;100353.81;1087800;54;19973;-79
2023/02/21 07:01:30;;;;;;;;;;;;;;;4.18;75.92;100355.50;1088538;46;19943;-79
2023/02/21 07:02:37;;;;;;;;;;;;;;;4.26;75.92;100352.41;1087664;39;20372;-79
2023/02/21 07:03:39;;;;;;;;;;;;;;;4.24;75.71;100354.28;1087632;54;19943;-78
2023/02/21 07:04:42;;;;;;;;;;;;;;;4.30;75.54;100345.94;1087522;54;19957;-79
2023/02/21 07:05:44;;;;;;;;;;;;;;;4.40;74.95;100351.53;1087795;54;19950;-79
2023/02/21 07:06:48;;;;;;;;;;;;;;;4.43;74.84;100358.41;1088066;54;19948;-79
2023/02/21 07:07:49;;;;;;;;;;;;;;;4.40;74.77;100354.16;1087985;54;19943;-80
2023/02/21 07:08:54;;;;;;;;;;;;;;;4.51;74.59;100348.19;1087796;54;19927;-82
2023/02/21 07:09:55;;;;;;;;;;;;;;;4.60;74.41;100360.00;1087890;54;19942;-80
2023/02/21 07:10:58;;;;;;;;;;;;;;;4.58;73.93;100354.78;1087872;54;19926;-81
2023/02/21 07:12:02;;;;;;;;;;;;;;;4.54;74.37;100353.28;1087933;54;19965;-80
2023/02/21 07:13:04;;;;;;;;;;;;;;;4.49;74.38;100355.38;1087957;54;19998;-81
2023/02/21 07:14:07;;;;;;;;;;;;;;;4.45;74.45;100357.34;1087774;54;19954;-79
2023/02/21 07:15:11;;;;;;;;;;;;;;;4.37;74.76;100352.56;1087920;54;19957;-80
2023/02/21 07:16:13;;;;;;;;;;;;;;;4.44;74.27;100358.31;1087955;54;19939;-81
2023/02/21 07:17:17;;;;;;;;;;;;;;;4.41;74.53;100350.56;1087753;54;19946;-81
2023/02/21 07:18:20;;;;;;;;;;;;;;;4.36;74.34;100358.81;1093497;39;20368;-81
2023/02/21 07:19:26;;;;;;;;;;;;;;;4.44;74.26;100358.31;1092504;39;20325;-81
2023/02/21 07:20:32;;;;;;;;;;;;;;;4.44;73.76;100355.66;1088037;39;20341;-79
2023/02/21 07:21:33;;;;;;;;;;;;;;;4.43;73.85;100363.72;1087661;54;19974;-80
2023/02/21 07:22:36;;;;;;;;;;;;;;;4.47;73.67;100359.94;1087771;54;19938;-81
2023/02/21 07:23:37;;;;;;;;;;;;;;;4.47;73.62;100359.94;1087946;54;19934;-80
2023/02/21 07:24:41;;;;;;;;;;;;;;;4.57;73.26;100355.75;1087777;54;19982;-80
2023/02/21 07:25:42;;;;;;;;;;;;;;;4.61;72.85;100362.53;1087819;54;19927;-80
2023/02/21 07:26:47;;;;;;;;;;;;;;;4.61;73.00;100356.41;1087764;54;19953;-80
2023/02/21 07:27:49;;;;;;;;;;;;;;;4.71;72.81;100357.50;1087764;54;19923;-80
2023/02/21 07:28:53;;;;;;;;;;;;;;;4.71;72.42;100348.69;1087971;54;19962;-78
2023/02/21 07:29:57;;;;;;;;;;;;;;;4.68;72.05;100353.22;1088049;54;19950;-79
2023/02/21 07:30:59;;;;;;;;;;;;;;;4.62;71.91;100358.09;1088195;54;19939;-79
2023/02/21 07:32:03;;;;;;;;;;;;;;;4.64;72.18;100357.03;1087884;54;19950;-79
2023/02/21 07:33:04;;;;;;;;;;;;;;;4.67;71.97;100353.34;1087875;54;19957;-78
2023/02/21 07:34:11;;;;;;;;;;;;;;;4.60;72.16;100354.69;1087816;54;20523;-79
2023/02/21 07:35:12;;;;;;;;;;;;;;;4.57;72.34;100354.88;1087752;54;19958;-79
2023/02/21 07:36:16;;;;;;;;;;;;;;;4.57;72.11;100354.88;1088606;39;20894;-78
2023/02/21 07:37:17;;;;;;;;;;;;;;;4.56;72.03;100354.03;1087647;54;19950;-79
2023/02/21 07:38:25;;;;;;;;;;;;;;;4.60;72.07;100360.00;1087807;54;19949;-78
2023/02/21 07:39:26;;;;;;;;;;;;;;;4.65;72.13;100352.59;1087865;54;19938;-80
2023/02/21 07:40:30;;;;;;;;;;;;;;;4.69;71.80;100354.09;1087700;54;19982;-79
2023/02/21 11:39:33;;;;;;;;;;;;;;;14.67;44.07;100212.47;1088173;54;19923;-81
2023/02/21 11:40:43;;;;;;;;;;;;;;;14.72;44.06;100207.44;1088219;54;19926;-81
2023/02/21 11:41:45;;;;;;;;;;;;;;;14.64;44.01;100200.16;1088274;54;19934;-82
2023/02/21 11:42:49;;;;;;;;;;;;;;;14.73;44.22;100209.13;1088093;54;19946;-82
2023/02/21 11:43:54;;;;;;;;;;;;;;;14.74;44.02;100205.41;1088152;54;19975;-81
2023/02/21 11:45:08;;;;;;;;;;;;;;;14.73;44.11;100198.38;1088182;54;19943;-81
2023/02/21 11:46:29;;;;;;;;;;;;;;;14.66;44.07;100195.50;1088159;54;19934;-83
2023/02/21 11:47:35;;;;;;;;;;;;;;;14.75;44.19;100198.19;1088702;39;20581;-81
2023/02/21 11:48:40;;;;;;;;;;;;;;;14.76;44.17;100191.78;1088245;54;19998;-81
2023/02/21 11:49:47;;;;;;;;;;;;;;;14.61;43.76;100194.28;1087887;54;19958;-81
2023/02/21 11:50:53;;;;;;;;;;;;;;;14.21;44.61;100186.00;1088363;47;19994;-83